Aviation Digital Data Service (ADDS)

Output produced by METARs form (2235 UTC 24 September 2016)
found at http://aviationweather.gov/adds/metars/
 
KEWN 241725Z 2418/2518 03006KT P6SM FEW050 
     FM250800 04005KT P6SM SCT007 BKN015 
     FM251600 04009KT P6SM SCT025 BKN040